Time;durP1;ratioP1;P1;durP2;ratioP2;P2;SDS_P1;SDS_P2;PMS_P1;PMS_P2;Temp;Humidity;BMP_temperature;BMP_pressure;BME280_temperature;BME280_humidity;BME280_pressure;Samples;Min_cycle;Max_cycle;Signal;HPM_P1;HPM_P2
2022/04/25 00:02:16;;;;;;;10.13;2.75;;;6.00;99.90;;;4.48;100.00;100669.47;4968644;28;20037;-78
2022/04/25 00:04:46;;;;;;;8.60;2.97;;;6.00;99.90;;;4.52;100.00;100658.91;4984787;28;20552;-77
2022/04/25 00:07:12;;;;;;;6.35;1.90;;;6.00;99.90;;;4.49;100.00;100664.22;5010144;23;20141;-79
2022/04/25 00:09:37;;;;;;;12.65;2.08;;;6.00;99.90;;;4.41;100.00;100655.69;4994582;28;20042;-79
2022/04/25 00:12:04;;;;;;;8.98;3.00;;;6.00;99.90;;;4.41;100.00;100660.91;4981125;28;20041;-78
2022/04/25 00:14:29;;;;;;;5.05;2.67;;;6.00;99.90;;;4.49;100.00;100668.56;4979246;28;20109;-78
2022/04/25 00:16:56;;;;;;;10.93;2.85;;;6.00;99.90;;;4.46;100.00;100663.41;4950430;28;20037;-77
2022/04/25 00:19:25;;;;;;;9.50;3.22;;;6.00;99.90;;;4.46;100.00;100660.81;4987598;28;20109;-78
2022/04/25 00:21:51;;;;;;;15.25;3.25;;;6.00;99.90;;;4.40;100.00;100659.19;4979066;28;20506;-78
2022/04/25 00:24:18;;;;;;;12.98;2.63;;;6.00;99.90;;;4.45;100.00;100661.69;4951863;28;20040;-78
2022/04/25 00:26:44;;;;;;;11.32;3.38;;;6.00;99.90;;;4.45;100.00;100659.06;4975532;28;20062;-78
2022/04/25 00:29:09;;;;;;;13.13;3.33;;;6.00;99.90;;;4.52;100.00;100668.50;4964522;28;20114;-78
2022/04/25 00:31:35;;;;;;;12.68;2.65;;;6.10;99.90;;;4.54;100.00;100661.50;4982849;28;20034;-78
2022/04/25 00:34:03;;;;;;;6.97;2.33;;;6.10;99.90;;;4.45;100.00;100662.56;4942601;28;20046;-78
2022/04/25 00:36:29;;;;;;;15.20;2.97;;;6.10;99.90;;;4.54;100.00;100651.06;4970637;28;20055;-79
2022/04/25 00:38:54;;;;;;;7.90;2.53;;;6.10;99.90;;;4.56;100.00;100662.31;4940950;28;20024;-77
2022/04/25 00:41:20;;;;;;;10.73;3.10;;;6.10;99.90;;;4.51;100.00;100654.59;4952014;28;20034;-78
2022/04/25 00:43:46;;;;;;;8.70;2.92;;;6.10;99.90;;;4.48;100.00;100659.88;4952044;28;20034;-79
2022/04/25 00:46:22;;;;;;;10.32;2.70;;;6.00;99.90;;;4.44;100.00;100655.63;4953449;28;20038;-78
2022/04/25 00:48:49;;;;;;;12.57;2.78;;;6.00;99.90;;;4.45;100.00;100657.34;4940259;28;20049;-78
2022/04/25 00:51:16;;;;;;;16.15;2.97;;;6.00;99.90;;;4.45;100.00;100666.91;4991887;28;20059;-78
2022/04/25 00:53:45;;;;;;;10.20;2.63;;;6.00;99.90;;;4.48;100.00;100656.41;4962456;28;20373;-79
2022/04/25 00:56:15;;;;;;;14.65;2.47;;;6.00;99.90;;;4.47;100.00;100657.28;4932216;28;20437;-78
2022/04/25 00:58:45;;;;;;;9.30;2.45;;;6.10;99.90;;;4.51;100.00;100656.34;4947340;28;20036;-78
2022/04/25 01:01:13;;;;;;;17.70;3.10;;;6.10;99.90;;;4.55;100.00;100651.91;4951425;28;20042;-78
2022/04/25 01:03:39;;;;;;;13.43;3.25;;;6.10;99.90;;;4.51;100.00;100651.13;4951499;28;20034;-78
2022/04/25 01:06:05;;;;;;;8.10;2.67;;;6.00;99.90;;;4.43;100.00;100645.25;4991588;28;20026;-78
2022/04/25 01:08:34;;;;;;;11.45;3.05;;;6.00;99.90;;;4.42;100.00;100646.13;4989551;28;20041;-78
2022/04/25 01:11:03;;;;;;;12.75;2.75;;;6.00;99.90;;;4.44;100.00;100644.34;4973446;28;20042;-78
2022/04/25 01:13:29;;;;;;;17.10;3.15;;;6.00;99.90;;;4.49;100.00;100648.56;4973351;28;20471;-79
2022/04/25 01:15:58;;;;;;;9.65;2.95;;;6.00;99.90;;;4.44;100.00;100652.16;4963173;28;20037;-78
2022/04/25 01:18:23;;;;;;;12.02;2.90;;;6.00;99.90;;;4.41;100.00;100647.03;4950677;28;20097;-78
2022/04/25 01:20:56;;;;;;;6.15;2.28;;;6.00;99.90;;;4.47;100.00;100654.69;4966737;28;20026;-78
2022/04/25 01:28:54;;;;;;;13.93;3.42;;;6.00;99.90;;;4.44;100.00;100655.63;4976924;28;20045;-78
2022/04/25 01:31:20;;;;;;;10.23;2.70;;;6.00;99.90;;;4.47;100.00;100650.34;4974309;28;20034;-79
2022/04/25 01:33:46;;;;;;;13.05;3.15;;;6.10;99.90;;;4.60;100.00;100650.94;4979989;28;20054;-78
2022/04/25 01:36:12;;;;;;;16.13;3.08;;;6.10;99.90;;;4.65;100.00;100661.25;4960931;28;20018;-79
2022/04/25 01:38:38;;;;;;;14.20;3.35;;;6.20;99.90;;;4.71;100.00;100664.56;4939093;28;20527;-78
2022/04/25 01:41:03;;;;;;;8.05;2.83;;;6.20;99.90;;;4.67;100.00;100657.72;4993079;28;20034;-78
2022/04/25 01:43:34;;;;;;;6.45;2.17;;;6.20;99.90;;;4.60;100.00;100656.16;4986117;28;20029;-78
2022/04/25 01:45:59;;;;;;;7.47;2.60;;;6.20;99.90;;;4.55;100.00;100657.97;4945395;28;20030;-77
2022/04/25 01:48:25;;;;;;;12.68;3.83;;;6.10;99.90;;;4.54;100.00;100656.28;4958231;28;20402;-78
2022/04/25 01:50:53;;;;;;;14.43;3.28;;;6.20;99.90;;;4.72;100.00;100666.28;4994001;28;20061;-77
2022/04/25 01:53:19;;;;;;;8.30;2.05;;;6.10;99.90;;;4.57;100.00;100665.78;4981322;28;20117;-78
2022/04/25 01:55:44;;;;;;;10.38;3.03;;;6.20;99.90;;;4.65;100.00;100654.28;4968416;28;20656;-77
2022/04/25 01:58:10;;;;;;;15.88;3.20;;;6.10;99.90;;;4.55;100.00;100657.13;4956105;28;20138;-78
2022/04/25 02:00:36;;;;;;;9.77;3.33;;;6.10;99.90;;;4.59;100.00;100659.63;4943643;28;20041;-79
2022/04/25 02:03:01;;;;;;;10.48;3.78;;;6.20;99.90;;;4.61;100.00;100662.22;4944569;28;20041;-78
2022/04/25 02:05:27;;;;;;;8.02;2.25;;;6.20;99.90;;;4.60;100.00;100658.75;4955414;28;20033;-78
2022/04/25 02:07:53;;;;;;;11.50;3.17;;;6.10;99.90;;;4.55;100.00;100657.97;4949060;28;20785;-78
2022/04/25 02:10:18;;;;;;;12.15;3.25;;;6.20;99.90;;;4.58;100.00;100662.25;4926313;28;20037;-78
2022/04/25 02:12:44;;;;;;;12.55;3.28;;;6.20;99.90;;;4.66;100.00;100661.19;4957029;28;20041;-78
2022/04/25 02:15:13;;;;;;;11.02;3.33;;;6.20;99.90;;;4.66;100.00;100669.03;4943777;28;20124;-79
2022/04/25 02:17:41;;;;;;;12.20;3.05;;;6.20;99.90;;;4.63;100.00;100674.31;4936124;28;20046;-79
2022/04/25 02:20:08;;;;;;;13.10;3.05;;;6.10;99.90;;;4.51;100.00;100662.44;4994920;28;20512;-79
2022/04/25 02:22:37;;;;;;;8.73;2.88;;;6.10;99.90;;;4.49;100.00;100658.13;4993919;28;20057;-78
2022/04/25 02:25:04;;;;;;;9.02;2.00;;;6.00;99.90;;;4.42;100.00;100651.34;4986488;28;20034;-79
2022/04/25 02:27:29;;;;;;;9.90;3.08;;;6.10;99.90;;;4.49;100.00;100658.13;4973167;28;20652;-79
2022/04/25 02:29:58;;;;;;;13.10;3.25;;;6.00;99.90;;;4.43;100.00;100660.88;4961793;28;20026;-80
2022/04/25 02:32:28;;;;;;;13.70;3.28;;;6.00;99.90;;;4.51;100.00;100664.16;4956213;28;20034;-79
2022/04/25 02:34:54;;;;;;;11.27;3.10;;;6.00;99.90;;;4.40;100.00;100671.38;4981050;28;20030;-79
2022/04/25 02:37:24;;;;;;;7.53;3.38;;;5.90;99.90;;;4.39;100.00;100659.25;4976750;28;20034;-78
2022/04/25 02:39:50;;;;;;;10.50;3.75;;;5.90;99.90;;;4.39;100.00;100659.25;4948686;28;20057;-79
2022/04/25 02:42:16;;;;;;;10.70;3.15;;;5.90;99.90;;;4.36;100.00;100654.91;4979963;28;20042;-79
2022/04/25 02:44:42;;;;;;;9.20;3.08;;;5.90;99.90;;;4.31;100.00;100659.41;4943638;28;20057;-79
2022/04/25 02:47:10;;;;;;;10.02;2.50;;;5.80;99.90;;;4.14;100.00;100651.94;4936106;28;20033;-80
2022/04/25 02:49:36;;;;;;;12.05;3.13;;;5.70;99.90;;;4.10;100.00;100643.34;4952107;28;20083;-79
2022/04/25 02:52:02;;;;;;;18.65;3.60;;;5.60;99.90;;;4.01;100.00;100648.72;4996010;28;20509;-78
2022/04/25 02:54:28;;;;;;;11.82;3.17;;;5.60;99.90;;;3.94;100.00;100635.88;4967573;28;20034;-79
2022/04/25 02:56:53;;;;;;;15.10;3.78;;;5.50;99.90;;;3.87;100.00;100637.75;4958939;28;20108;-78
2022/04/25 02:59:20;;;;;;;15.00;3.60;;;5.40;99.90;;;3.80;100.00;100642.22;4969414;28;22000;-78
2022/04/25 03:01:46;;;;;;;8.73;3.33;;;5.40;99.90;;;3.78;100.00;100636.19;4982274;28;20022;-78
2022/04/25 03:04:12;;;;;;;12.40;3.33;;;5.30;99.90;;;3.76;100.00;100650.09;4988107;28;20034;-78
2022/04/25 03:06:38;;;;;;;13.63;3.30;;;5.30;99.90;;;3.68;100.00;100643.31;4938988;28;20046;-79
2022/04/25 03:09:03;;;;;;;13.82;3.50;;;5.30;99.90;;;3.66;100.00;100644.22;4959656;28;20041;-79
2022/04/25 03:11:29;;;;;;;11.88;3.50;;;5.20;99.90;;;3.65;100.00;100652.91;4953366;28;20113;-77
2022/04/25 03:13:56;;;;;;;12.55;3.63;;;5.20;99.90;;;3.58;100.00;100651.31;4955806;28;20171;-78
2022/04/25 03:16:21;;;;;;;11.75;3.58;;;5.10;99.90;;;3.52;100.00;100644.50;4919010;28;20027;-77
2022/04/25 03:18:48;;;;;;;8.45;3.22;;;5.10;99.90;;;3.53;100.00;100650.56;4979596;28;20600;-78
2022/04/25 03:21:14;;;;;;;10.68;2.92;;;5.00;99.90;;;3.40;100.00;100642.97;4966256;28;20709;-78
2022/04/25 03:23:42;;;;;;;10.88;3.78;;;5.00;99.90;;;3.35;100.00;100649.13;4958309;28;20056;-78
2022/04/25 03:26:08;;;;;;;11.30;3.70;;;5.00;99.90;;;3.33;100.00;100650.94;4964083;28;20109;-77
2022/04/25 03:28:34;;;;;;;13.07;3.63;;;4.90;99.90;;;3.27;100.00;100651.91;4956673;28;20544;-78
2022/04/25 03:31:00;;;;;;;10.02;3.15;;;4.90;99.90;;;3.31;100.00;100647.50;4974280;28;20482;-79
2022/04/25 03:33:31;;;;;;;12.10;3.90;;;4.90;99.90;;;3.29;100.00;100650.13;4966486;28;20046;-78
2022/04/25 03:35:57;;;;;;;16.27;3.70;;;4.80;99.90;;;3.30;100.00;100649.22;4974115;28;20030;-79
2022/04/25 03:38:23;;;;;;;16.58;3.55;;;4.80;99.90;;;3.29;100.00;100650.13;4943571;28;20089;-78
2022/04/25 03:40:49;;;;;;;13.68;3.83;;;;;;;3.24;100.00;100659.75;4944130;28;20105;-78
2022/04/25 03:43:17;;;;;;;14.52;3.97;;;4.80;99.90;;;3.26;100.00;100657.97;4972991;28;20037;-78
2022/04/25 03:45:43;;;;;;;17.08;3.90;;;4.80;99.90;;;3.28;100.00;100664.00;4966804;28;20038;-78
2022/04/25 03:48:09;;;;;;;14.77;3.60;;;4.70;99.90;;;3.25;100.00;100666.69;4987749;28;20439;-78
2022/04/25 03:50:35;;;;;;;12.57;4.13;;;4.70;99.90;;;3.24;100.00;100665.81;4958240;28;20091;-78
2022/04/25 03:53:09;;;;;;;17.75;3.72;;;4.70;99.90;;;3.21;100.00;100667.63;4990059;28;20042;-78
2022/04/25 03:58:21;;;;;;;16.40;3.78;;;4.70;99.90;;;3.26;100.00;100673.59;4966505;28;20036;-78
2022/04/25 04:00:47;;;;;;;15.02;3.75;;;4.70;99.90;;;3.26;100.00;100679.66;4979330;28;20479;-78
2022/04/25 04:03:15;;;;;;;18.55;4.13;;;4.70;99.90;;;3.26;100.00;100682.28;4980785;28;20500;-78
2022/04/25 04:05:42;;;;;;;15.82;4.38;;;4.70;99.90;;;3.24;100.00;100678.84;4974121;28;20037;-78
2022/04/25 04:08:11;;;;;;;16.98;4.18;;;4.70;99.90;;;3.22;100.00;100682.34;4957367;28;20037;-78
2022/04/25 04:10:37;;;;;;;18.02;3.97;;;4.70;99.90;;;3.29;100.00;100691.78;4979383;28;20061;-79
2022/04/25 04:13:05;;;;;;;11.55;3.97;;;4.80;99.90;;;3.37;100.00;100687.28;4959472;28;20420;-78
2022/04/25 04:15:31;;;;;;;10.32;3.80;;;4.80;99.90;;;3.44;100.00;100681.09;4966268;28;20080;-77
2022/04/25 04:17:58;;;;;;;12.10;3.85;;;4.80;99.90;;;3.53;100.00;100685.25;4934868;28;20023;-78
2022/04/25 04:20:24;;;;;;;22.80;3.92;;;4.90;99.90;;;3.59;100.00;100684.31;4960058;28;20208;-78
2022/04/25 04:22:49;;;;;;;10.82;4.18;;;4.90;99.90;;;3.65;100.00;100685.03;4951218;28;20129;-78
2022/04/25 04:25:18;;;;;;;12.35;3.75;;;5.00;99.90;;;3.76;100.00;100682.25;4957008;28;20026;-78
2022/04/25 04:27:43;;;;;;;14.25;3.83;;;5.10;99.90;;;3.94;100.00;100696.66;4972762;28;20032;-79
2022/04/25 04:30:12;;;;;;;19.55;4.28;;;5.30;99.90;;;4.26;100.00;100695.13;4971824;28;20033;-79
2022/04/25 04:32:40;;;;;;;16.50;4.03;;;5.40;99.90;;;4.39;100.00;100695.75;5001077;28;20509;-77
2022/04/25 04:35:09;;;;;;;19.27;4.10;;;5.60;99.90;;;4.71;98.85;100701.09;4941543;28;20171;-79
2022/04/25 04:37:37;;;;;;;9.02;3.33;;;6.10;99.90;;;5.72;96.67;100700.34;4962867;28;20022;-78
2022/04/25 04:42:52;;;;;;;14.13;3.88;;;6.70;99.90;;;6.12;90.62;100716.69;4977531;28;20107;-78
2022/04/25 04:45:18;;;;;;;14.05;3.85;;;6.80;99.90;;;6.08;89.31;100710.69;4950041;28;20132;-77
2022/04/25 04:47:44;;;;;;;12.70;3.88;;;6.90;99.90;;;6.52;88.04;100715.53;4945420;28;20489;-79
2022/04/25 04:50:14;;;;;;;11.70;3.38;;;7.10;99.90;;;6.45;87.11;100714.00;4931256;28;20130;-77
2022/04/25 04:52:46;;;;;;;14.10;4.13;;;7.20;99.90;;;6.40;86.21;100719.38;4971745;28;20038;-78
2022/04/25 04:55:12;;;;;;;13.77;3.78;;;7.10;99.90;;;6.08;86.82;100729.00;4975841;28;20028;-79
2022/04/25 04:57:39;;;;;;;9.93;3.50;;;7.00;99.90;;;5.99;87.10;100726.63;4956586;28;20026;-78
2022/04/25 05:00:08;;;;;;;19.08;3.72;;;7.00;99.90;;;5.88;87.89;100732.13;4947227;28;20090;-78
2022/04/25 05:02:36;;;;;;;13.88;3.72;;;6.80;99.90;;;5.51;88.42;100727.88;4938829;28;20037;-78
2022/04/25 05:05:03;;;;;;;12.13;3.42;;;6.70;99.90;;;5.42;89.84;100730.72;4929591;28;20469;-78
2022/04/25 05:07:32;;;;;;;13.85;3.63;;;6.60;99.90;;;5.35;90.46;100736.97;4937042;28;20513;-78
2022/04/25 05:09:58;;;;;;;15.35;3.63;;;6.40;99.90;;;5.09;91.90;100741.06;4944855;28;20119;-78
2022/04/25 05:12:26;;;;;;;12.90;3.70;;;6.40;99.90;;;5.00;92.94;100738.69;4955955;28;20398;-78
2022/04/25 05:14:52;;;;;;;14.75;3.47;;;6.30;99.90;;;4.99;94.00;100738.72;4944542;28;20629;-77
2022/04/25 05:17:18;;;;;;;11.07;3.80;;;6.30;99.90;;;4.96;94.09;100733.59;4961484;28;20025;-78
2022/04/25 05:19:44;;;;;;;19.30;4.05;;;6.20;99.90;;;4.85;94.55;100734.69;4958322;28;20014;-78
2022/04/25 05:22:10;;;;;;;14.27;4.07;;;6.10;99.90;;;4.62;96.49;100736.94;4983768;28;20121;-78
2022/04/25 05:24:36;;;;;;;13.23;3.75;;;6.00;99.90;;;4.52;98.75;100741.50;4958397;28;20432;-77
2022/04/25 05:27:02;;;;;;;11.85;3.92;;;5.90;99.90;;;4.46;100.00;100741.63;4976422;28;20769;-78
2022/04/25 05:29:28;;;;;;;9.35;3.28;;;5.90;99.90;;;4.48;100.00;100739.84;4992854;28;20014;-78
2022/04/25 05:31:54;;;;;;;20.38;4.28;;;5.90;99.90;;;4.51;100.00;100745.00;4960963;28;20478;-78
2022/04/25 05:34:19;;;;;;;14.55;3.42;;;5.90;99.90;;;4.47;100.00;100741.63;4939339;28;20038;-79
2022/04/25 05:36:45;;;;;;;12.73;3.83;;;6.00;99.90;;;4.60;100.00;100747.44;4955885;28;20089;-79
2022/04/25 05:39:14;;;;;;;12.43;3.65;;;6.00;99.90;;;4.77;100.00;100751.41;4953343;28;20057;-79
2022/04/25 05:41:46;;;;;;;13.60;3.45;;;6.10;99.90;;;4.78;100.00;100747.91;4958330;28;20120;-77
2022/04/25 05:44:12;;;;;;;16.38;5.03;;;6.20;99.90;;;4.86;100.00;100746.84;4968940;28;20033;-79
2022/04/25 05:46:38;;;;;;;11.80;4.57;;;6.20;99.90;;;4.89;100.00;100751.13;4975742;28;20436;-79
2022/04/25 05:52:03;;;;;;;17.52;4.32;;;6.30;99.90;;;5.03;100.00;100769.97;4966451;28;20056;-78
2022/04/25 05:54:32;;;;;;;12.02;3.50;;;6.30;99.90;;;4.99;100.00;100768.31;4963819;28;20422;-78
2022/04/25 05:56:58;;;;;;;10.93;3.75;;;6.40;99.90;;;4.98;100.00;100771.78;4942618;28;20045;-78
2022/04/25 05:59:24;;;;;;;8.60;3.28;;;6.40;99.90;;;4.99;100.00;100770.03;4966102;28;20073;-79
2022/04/25 06:01:49;;;;;;;9.30;2.60;;;6.40;99.90;;;5.02;100.00;100764.75;4993806;28;20030;-78
2022/04/25 06:04:15;;;;;;;8.32;2.92;;;6.50;99.90;;;5.03;100.00;100774.28;4984362;28;20172;-78
2022/04/25 06:06:43;;;;;;;7.97;3.08;;;6.50;99.90;;;5.21;100.00;100778.25;4958687;28;20482;-78
2022/04/25 06:09:09;;;;;;;11.52;3.17;;;6.60;99.90;;;5.44;100.00;100781.16;4943049;28;20052;-79
2022/04/25 06:11:34;;;;;;;7.75;2.97;;;6.70;99.90;;;5.52;100.00;100787.03;4985090;28;20033;-79
2022/04/25 06:14:02;;;;;;;14.15;2.75;;;6.90;99.90;;;5.64;99.67;100785.88;4980580;28;21492;-80
2022/04/25 06:16:28;;;;;;;16.15;4.03;;;6.90;99.90;;;5.87;98.42;100790.50;4953914;28;20029;-78
2022/04/25 06:18:53;;;;;;;6.30;2.70;;;7.20;99.90;;;6.03;97.56;100793.63;4964396;28;20024;-78
2022/04/25 06:21:19;;;;;;;17.08;3.13;;;7.40;99.90;;;6.53;95.22;100795.72;4963851;28;20041;-78
2022/04/25 06:23:45;;;;;;;10.10;3.15;;;7.60;99.90;;;6.61;92.67;100799.00;4962965;28;21176;-78
2022/04/25 06:26:10;;;;;;;8.60;2.90;;;7.80;99.90;;;6.93;90.81;100799.78;4973407;28;20038;-78
2022/04/25 06:28:36;;;;;;;9.00;2.72;;;8.00;99.90;;;6.95;89.45;100801.47;4966490;28;20058;-78
2022/04/25 06:31:02;;;;;;;7.80;2.65;;;8.10;99.90;;;6.88;88.53;100804.31;4975027;28;20041;-80
2022/04/25 06:33:28;;;;;;;12.70;2.97;;;8.10;99.90;;;6.78;88.77;100801.09;4968163;28;20030;-78
2022/04/25 06:35:54;;;;;;;8.50;2.60;;;8.10;99.90;;;6.90;88.39;100807.72;4966832;28;20123;-79
2022/04/25 06:38:21;;;;;;;6.68;2.40;;;8.30;99.90;;;7.03;88.17;100814.31;4956435;28;20030;-78
2022/04/25 06:40:49;;;;;;;8.20;2.60;;;8.30;99.90;;;7.18;87.06;100812.97;4951854;28;20023;-78
2022/04/25 06:43:15;;;;;;;10.02;2.92;;;8.30;99.90;;;6.95;86.16;100818.91;4969626;28;20042;-80
2022/04/25 06:45:41;;;;;;;7.68;2.75;;;8.30;99.90;;;6.92;86.09;100813.78;4974510;28;20098;-79
2022/04/25 06:48:07;;;;;;;6.70;3.00;;;8.30;99.90;;;7.14;86.19;100827.06;4975613;28;20038;-78
2022/04/25 06:50:33;;;;;;;14.48;2.95;;;8.30;99.90;;;6.96;86.15;100820.66;4966996;28;20038;-79
2022/04/25 06:52:59;;;;;;;4.82;1.90;;;8.20;99.90;;;6.65;85.13;100818.94;4990888;28;20692;-79
2022/04/25 06:55:25;;;;;;;8.70;2.67;;;8.20;99.90;;;6.88;86.07;100820.00;4992656;28;20045;-79
2022/04/25 06:57:52;;;;;;;11.10;2.70;;;8.40;99.90;;;7.22;85.99;100824.22;4954950;28;20094;-79
2022/04/25 07:00:19;;;;;;;12.52;2.80;;;8.50;99.90;;;7.53;85.14;100822.31;4943821;28;20045;-79
2022/04/25 07:02:45;;;;;;;7.72;2.78;;;8.80;99.90;;;8.31;81.80;100817.97;4962154;28;20138;-79
2022/04/25 07:05:11;;;;;;;7.85;2.60;;;9.10;99.90;;;8.34;80.11;100818.72;4959581;28;20019;-78
2022/04/25 07:07:38;;;;;;;5.28;2.08;;;9.30;99.90;;;8.27;78.63;100818.97;4973539;28;20036;-79
2022/04/25 07:10:05;;;;;;;6.30;2.58;;;9.40;99.90;;;8.32;78.50;100820.53;4976327;28;20080;-79
2022/04/25 07:12:31;;;;;;;9.25;2.63;;;9.50;99.90;;;8.48;78.32;100828.72;4950484;28;20065;-79
2022/04/25 07:14:57;;;;;;;16.30;4.22;;;9.70;99.90;;;8.78;77.89;100836.41;4966721;28;20073;-79
2022/04/25 07:17:23;;;;;;;6.10;2.25;;;9.70;99.90;;;8.48;76.19;100825.25;4946501;28;20150;-80
2022/04/25 07:19:49;;;;;;;8.35;2.13;;;9.60;99.90;;;8.22;76.80;100834.88;4970121;28;20123;-79
2022/04/25 07:30:27;;;;;;;7.90;2.45;;;10.80;99.90;;;10.86;70.42;100852.34;4965075;28;20056;-79
2022/04/25 07:32:55;;;;;;;5.70;2.50;;;11.50;99.90;;;11.98;66.90;100849.63;4969333;28;20030;-79
2022/04/25 07:35:21;;;;;;;6.55;2.40;;;12.20;99.90;;;11.95;63.78;100847.16;4954239;28;20031;-78
2022/04/25 07:37:48;;;;;;;5.22;2.25;;;13.00;99.90;;;13.87;60.07;100855.28;4956601;28;20480;-79
2022/04/25 07:40:16;;;;;;;4.25;1.55;;;14.10;99.90;;;15.09;55.63;100840.81;4940363;28;20034;-80
2022/04/25 07:42:44;;;;;;;7.35;1.90;;;15.10;99.90;;;15.75;52.25;100836.56;4941612;28;20243;-79
2022/04/25 07:45:09;;;;;;;5.38;2.20;;;15.60;99.90;;;15.22;54.29;100846.19;4955838;28;20054;-77
2022/04/25 07:47:36;;;;;;;8.27;2.50;;;15.20;99.90;;;13.54;55.59;100860.72;4932633;28;20065;-80
2022/04/25 07:50:03;;;;;;;5.85;2.30;;;13.90;99.90;;;11.54;58.89;100860.59;4967299;28;20451;-78
2022/04/25 07:52:29;;;;;;;7.97;2.17;;;12.80;99.90;;;10.09;63.41;100865.41;4981934;28;20375;-79
2022/04/25 07:54:56;;;;;;;8.43;3.00;;;12.00;99.90;;;9.87;67.78;100892.59;4951673;28;20100;-79
2022/04/25 07:57:22;;;;;;;5.43;2.08;;;11.60;99.90;;;9.84;68.62;100897.97;4989296;28;20094;-79
2022/04/25 07:59:48;;;;;;;5.63;2.53;;;11.50;99.90;;;10.02;68.96;100896.34;4965896;28;20434;-79
2022/04/25 08:02:17;;;;;;;11.20;2.50;;;11.60;99.90;;;10.90;66.84;100890.81;4973178;28;20650;-79
2022/04/25 08:04:45;;;;;;;5.05;2.50;;;11.60;99.90;;;10.69;65.68;100887.38;4951466;28;20030;-78
2022/04/25 08:07:14;;;;;;;5.93;2.00;;;11.60;99.90;;;10.65;64.67;100880.53;4960202;28;20033;-79
2022/04/25 08:09:40;;;;;;;4.47;2.13;;;11.40;99.90;;;10.24;65.34;100891.91;4952631;28;20042;-79
2022/04/25 08:17:59;;;;;;;6.03;2.33;;;11.40;99.90;;;10.44;66.60;100903.38;4981649;28;20041;-78
2022/04/25 08:20:30;;;;;;;5.57;2.00;;;11.40;99.90;;;10.49;66.31;100900.56;4975630;28;20034;-80
2022/04/25 08:22:58;;;;;;;5.45;2.40;;;11.50;99.90;;;10.73;65.26;100894.19;4949244;28;20156;-78
2022/04/25 08:25:24;;;;;;;4.13;2.17;;;11.60;99.90;;;10.75;64.75;100891.50;4972109;28;20034;-78
2022/04/25 08:27:50;;;;;;;7.40;2.40;;;11.90;99.90;;;11.72;61.98;100902.81;4951337;28;20026;-78
2022/04/25 08:30:17;;;;;;;5.07;2.47;;;12.90;99.90;;;13.73;59.55;100905.50;4978743;28;20042;-77
2022/04/25 08:32:44;;;;;;;5.38;2.20;;;14.00;99.90;;;14.56;56.21;100900.69;4968404;28;20022;-77
2022/04/25 08:35:14;;;;;;;3.55;2.10;;;14.90;99.90;;;15.26;53.07;100892.81;4981177;28;20528;-81
2022/04/25 08:37:41;;;;;;;4.97;1.83;;;15.30;99.90;;;14.70;52.40;100899.84;4922797;28;20025;-78
2022/04/25 08:40:08;;;;;;;5.63;2.30;;;15.60;99.90;;;15.32;52.96;100905.69;4975070;28;20034;-80
2022/04/25 08:42:35;;;;;;;3.70;2.00;;;15.50;99.90;;;14.66;52.94;100906.28;4950227;28;20034;-79
2022/04/25 08:45:05;;;;;;;3.33;1.80;;;15.20;99.90;;;14.10;53.11;100904.25;4981440;28;20023;-80
2022/04/25 08:47:40;;;;;;;4.80;2.20;;;14.90;99.90;;;13.60;55.90;100915.94;4967874;28;20072;-79
2022/04/25 08:50:07;;;;;;;3.20;1.58;;;13.80;99.90;;;11.44;58.18;100906.78;4964399;28;20037;-79
2022/04/25 08:52:35;;;;;;;6.10;2.40;;;13.10;99.90;;;11.20;61.82;100935.13;4941823;28;20030;-80
2022/04/25 08:55:02;;;;;;;6.45;2.30;;;12.50;99.90;;;10.68;63.88;100933.91;4987912;28;20540;-79
2022/04/25 08:57:31;;;;;;;5.13;2.53;;;12.30;99.90;;;11.08;66.39;100934.78;4938981;28;20049;-80
2022/04/25 08:59:59;;;;;;;6.65;2.28;;;12.20;99.90;;;11.04;64.69;100935.00;4985513;28;20041;-79
2022/04/25 09:02:28;;;;;;;6.20;2.25;;;12.40;99.90;;;11.58;65.78;100933.34;4954624;28;20052;-79
2022/04/25 09:04:54;;;;;;;13.40;2.40;;;12.50;99.90;;;11.44;64.79;100935.78;4968414;28;20044;-80
2022/04/25 09:07:20;;;;;;;8.02;2.63;;;12.50;99.90;;;11.39;64.68;100940.44;4995482;28;20058;-81
2022/04/25 09:09:45;;;;;;;4.18;2.05;;;12.70;99.90;;;11.61;63.71;100927.06;4965613;28;20149;-78
2022/04/25 09:12:18;;;;;;;5.47;2.45;;;12.30;99.90;;;10.87;63.81;100939.22;4944138;28;20042;-79
2022/04/25 09:14:45;;;;;;;4.78;2.13;;;12.10;99.90;;;10.89;64.44;100941.81;4967380;28;20042;-79
2022/04/25 09:17:12;;;;;;;5.63;2.15;;;12.10;99.90;;;10.91;65.75;100934.69;4939717;28;20034;-78
2022/04/25 09:19:39;;;;;;;9.98;2.58;;;12.20;99.90;;;11.17;64.93;100930.88;4995227;28;20120;-77
2022/04/25 09:22:08;;;;;;;10.25;2.75;;;12.00;99.90;;;10.69;64.82;100937.41;4988137;28;20095;-76
2022/04/25 09:24:44;;;;;;;4.95;2.38;;;11.90;99.90;;;10.67;65.40;100936.63;4982161;28;20030;-80
2022/04/25 09:27:23;;;;;;;6.93;3.15;;;11.80;99.90;;;10.48;66.71;100941.81;4971189;28;21640;-79
2022/04/25 09:29:49;;;;;;;5.03;2.08;;;12.00;99.90;;;10.80;67.55;100940.44;4965313;28;20030;-79
2022/04/25 09:32:34;;;;;;;4.80;2.58;;;12.10;99.90;;;11.19;65.01;100929.03;4956591;28;20533;-79
2022/04/25 09:35:33;;;;;;;6.75;2.70;;;12.30;99.90;;;11.65;63.80;100928.63;4956986;28;20037;-80
2022/04/25 09:38:03;;;;;;;2.33;1.65;;;12.60;99.90;;;11.54;63.13;100926.50;4972685;28;20410;-80
2022/04/25 09:40:35;;;;;;;6.88;2.78;;;12.60;99.90;;;11.65;62.19;100934.75;4984773;28;20033;-80
2022/04/25 09:43:29;;;;;;;5.72;2.50;;;12.60;99.90;;;11.25;62.26;100931.38;4972331;28;20092;-76
2022/04/25 09:46:13;;;;;;;5.32;2.47;;;12.60;99.90;;;11.49;62.64;100934.66;4965065;28;20034;-79
2022/04/25 09:48:46;;;;;;;12.00;3.10;;;12.60;99.90;;;11.51;65.46;100942.47;4956514;28;20040;-79
2022/04/25 09:51:14;;;;;;;5.05;2.67;;;12.70;99.90;;;11.78;65.25;100945.59;4967891;28;20042;-79
2022/04/25 09:53:52;;;;;;;3.80;1.95;;;12.80;99.90;;;11.80;64.16;100945.53;4959286;28;20569;-78
2022/04/25 09:56:22;;;;;;;7.40;3.08;;;12.60;99.90;;;11.37;65.38;100945.75;4917684;28;20092;-78
2022/04/25 09:59:18;;;;;;;7.05;2.63;;;12.80;99.90;;;11.71;63.05;100949.44;4947393;28;20038;-79
2022/04/25 10:01:45;;;;;;;7.05;2.45;;;13.00;99.90;;;12.12;61.38;100951.91;4939615;28;20034;-79
2022/04/25 10:04:31;;;;;;;6.50;2.50;;;13.00;99.90;;;12.33;61.46;100957.88;4968697;28;20022;-78
2022/04/25 10:07:00;;;;;;;7.57;2.80;;;13.20;99.90;;;12.29;62.77;100956.34;4973812;28;20103;-79
2022/04/25 10:09:30;;;;;;;5.88;2.53;;;13.30;99.90;;;12.11;62.32;100964.22;4967560;28;20084;-79
2022/04/25 10:12:05;;;;;;;4.75;2.95;;;13.40;99.90;;;12.40;63.07;100961.94;4948708;28;20121;-79
2022/04/25 10:14:31;;;;;;;5.13;2.58;;;13.50;99.90;;;12.59;63.96;100964.50;4982104;28;20026;-80
2022/04/25 10:16:59;;;;;;;6.07;2.70;;;13.40;99.90;;;12.09;61.12;100962.59;4953126;28;20030;-78
2022/04/25 10:19:29;;;;;;;5.40;2.95;;;13.30;99.90;;;12.06;62.19;100960.97;4959320;28;20030;-79
2022/04/25 10:21:56;;;;;;;4.78;2.90;;;13.50;99.90;;;12.49;62.26;100972.03;4965669;28;20039;-79
2022/04/25 10:24:25;;;;;;;6.43;3.22;;;13.30;99.90;;;12.19;61.91;100976.22;4978440;28;20572;-79
2022/04/25 10:26:57;;;;;;;7.93;2.90;;;13.50;99.90;;;12.46;61.74;100972.19;4934496;28;20025;-79
2022/04/25 10:29:34;;;;;;;7.97;3.10;;;13.80;99.90;;;13.01;61.01;100978.19;4956868;28;20030;-79
2022/04/25 10:32:01;;;;;;;5.95;3.13;;;13.60;99.90;;;12.18;59.76;100966.56;4949376;28;20036;-80
2022/04/25 10:35:01;;;;;;;9.40;3.40;;;13.70;99.90;;;12.69;62.37;100986.00;4958760;28;20061;-79
2022/04/25 10:37:36;;;;;;;5.78;3.30;;;13.90;99.90;;;12.87;62.00;100978.91;4965200;28;20042;-75
2022/04/25 10:40:07;;;;;;;6.65;2.78;;;13.70;99.90;;;12.30;61.52;100976.53;4972707;28;20528;-77
2022/04/25 10:46:00;;;;;;;6.28;2.65;;;13.90;99.90;;;12.97;62.54;100982.78;4990488;28;20041;-78
2022/04/25 10:49:09;;;;;;;8.38;3.42;;;13.80;99.90;;;12.60;61.92;100978.56;4936438;28;20148;-78
2022/04/25 10:51:41;;;;;;;6.45;2.97;;;13.80;99.90;;;12.56;62.43;100990.22;4968829;28;20609;-80